createdAt,value
2023-04-30T00:03:26.373Z,72.47
2023-04-30T00:08:30.215Z,73.18
2023-04-30T00:13:32.537Z,74.84
2023-04-30T00:18:34.701Z,76.86
2023-04-30T00:23:37.015Z,73.24
2023-04-30T00:28:39.350Z,76.09
2023-04-30T00:33:41.946Z,75.41
2023-04-30T00:38:44.209Z,77.20
2023-04-30T00:43:47.315Z,76.73
2023-04-30T00:48:50.343Z,77.72
2023-04-30T00:53:53.057Z,78.28
2023-04-30T00:58:57.518Z,74.43
2023-04-30T01:04:01.127Z,74.36
2023-04-30T01:09:03.864Z,74.34
2023-04-30T01:14:30.230Z,76.12
2023-04-30T01:19:48.701Z,76.55
2023-04-30T01:25:31.147Z,78.43
2023-04-30T01:30:37.421Z,75.86
2023-04-30T01:36:06.203Z,74.20
2023-04-30T01:41:21.626Z,75.17
2023-04-30T01:46:30.462Z,74.41
2023-04-30T01:51:43.266Z,80.19
2023-04-30T01:57:04.135Z,78.38
2023-04-30T02:02:07.337Z,76.34
2023-04-30T02:07:09.629Z,76.57
2023-04-30T02:12:11.955Z,74.83
2023-04-30T02:17:14.228Z,76.57
2023-04-30T02:22:16.481Z,75.64
2023-04-30T02:27:20.830Z,75.57
2023-04-30T02:32:23.125Z,74.36
2023-04-30T02:37:25.445Z,80.51
2023-04-30T02:42:28.753Z,78.19
2023-04-30T02:47:31.070Z,77.22
2023-04-30T02:52:33.411Z,77.53
2023-04-30T02:57:35.784Z,76.62
2023-04-30T03:02:38.041Z,78.09
2023-04-30T03:07:40.312Z,79.21
2023-04-30T03:12:42.671Z,78.86
2023-04-30T03:17:46.283Z,75.56
2023-04-30T03:22:48.714Z,78.08
2023-04-30T03:27:51.072Z,77.57
2023-04-30T03:32:53.190Z,80.30
2023-04-30T03:37:56.055Z,77.96
2023-04-30T03:42:58.364Z,74.76
2023-04-30T03:48:00.617Z,81.12
2023-04-30T03:53:02.980Z,77.00
2023-04-30T03:58:05.687Z,75.87
2023-04-30T04:03:08.100Z,77.57
2023-04-30T04:08:11.108Z,76.20
2023-04-30T04:13:13.585Z,79.41
2023-04-30T04:18:15.835Z,81.64
2023-04-30T04:23:18.228Z,82.66
2023-04-30T04:28:20.536Z,77.92
2023-04-30T04:33:23.250Z,79.34
2023-04-30T04:38:26.395Z,80.40
2023-04-30T04:43:28.890Z,78.23
2023-04-30T04:48:31.070Z,78.38
2023-04-30T04:53:34.849Z,77.68
2023-04-30T04:58:37.507Z,78.02
2023-04-30T05:03:39.870Z,80.32
2023-04-30T05:08:42.883Z,76.94
2023-04-30T05:13:45.139Z,80.50
2023-04-30T05:18:47.355Z,78.91
2023-04-30T05:23:49.622Z,79.00
2023-04-30T05:28:52.501Z,76.52
2023-04-30T05:33:54.622Z,69.73
2023-04-30T05:38:56.847Z,65.67
2023-04-30T05:43:59.051Z,72.28
2023-04-30T05:49:01.847Z,69.04
2023-04-30T05:54:04.157Z,75.98
2023-04-30T05:59:06.415Z,72.65
2023-04-30T06:04:09.286Z,74.38
2023-04-30T06:09:11.862Z,75.20
2023-04-30T06:14:14.280Z,70.17
2023-04-30T06:19:16.535Z,71.63
2023-04-30T06:24:18.731Z,73.14
2023-04-30T06:29:21.210Z,73.64
2023-04-30T06:34:23.469Z,73.44
2023-04-30T06:39:25.872Z,71.19
2023-04-30T06:44:28.095Z,69.12
2023-04-30T06:49:30.286Z,70.73
2023-04-30T06:54:32.445Z,67.70
2023-04-30T06:59:34.564Z,73.11
2023-04-30T07:04:36.740Z,69.05
2023-04-30T07:09:38.957Z,68.66
2023-04-30T07:14:41.245Z,68.87
2023-04-30T07:19:43.659Z,69.05
2023-04-30T07:24:46.017Z,69.89
2023-04-30T07:29:48.497Z,69.48
2023-04-30T07:34:51.392Z,69.34
2023-04-30T07:39:53.842Z,67.67
2023-04-30T07:44:56.072Z,67.83
2023-04-30T07:49:58.542Z,64.87
2023-04-30T07:55:00.875Z,66.58
2023-04-30T08:00:04.189Z,65.58
2023-04-30T08:05:14.643Z,63.35
2023-04-30T08:10:17.123Z,63.85
2023-04-30T08:15:21.849Z,62.01
2023-04-30T08:20:24.105Z,61.42
2023-04-30T08:25:26.491Z,63.36
2023-04-30T08:30:28.772Z,58.22
2023-04-30T08:35:31.098Z,56.82
2023-04-30T08:40:50.390Z,58.46
2023-04-30T08:45:53.921Z,58.11
2023-04-30T08:50:56.254Z,57.67
2023-04-30T08:55:59.320Z,58.56
2023-04-30T09:01:02.329Z,57.08
2023-04-30T09:06:04.843Z,56.06
2023-04-30T09:11:25.176Z,56.76
2023-04-30T09:16:33.335Z,56.59
2023-04-30T09:21:37.212Z,56.07
2023-04-30T09:26:39.468Z,56.72
2023-04-30T09:31:47.503Z,56.49
2023-04-30T09:36:57.572Z,56.37
2023-04-30T09:42:10.768Z,55.61
2023-04-30T09:47:16.315Z,55.72
2023-04-30T09:52:19.979Z,54.55
2023-04-30T09:57:24.491Z,54.65
2023-04-30T10:02:27.188Z,55.77
2023-04-30T10:07:37.151Z,56.26
2023-04-30T10:12:45.510Z,55.57
2023-04-30T10:17:57.921Z,56.04
2023-04-30T10:23:01.300Z,53.46
2023-04-30T10:28:04.976Z,54.74
2023-04-30T10:33:57.797Z,54.66
2023-04-30T10:39:01.147Z,53.90
2023-04-30T10:44:05.527Z,54.49
2023-04-30T10:49:08.710Z,55.50
2023-04-30T10:54:11.752Z,56.55
2023-04-30T10:59:14.589Z,55.31
2023-04-30T11:04:16.897Z,54.83
2023-04-30T11:09:39.762Z,53.24
2023-04-30T11:14:44.826Z,53.03
2023-04-30T11:19:53.013Z,53.70
2023-04-30T11:25:05.652Z,52.67
2023-04-30T11:30:18.574Z,51.92
2023-04-30T11:35:20.782Z,53.13
2023-04-30T11:40:22.868Z,53.88
2023-04-30T11:45:25.480Z,53.00
2023-04-30T11:50:33.564Z,54.44
2023-04-30T11:55:35.973Z,53.58
2023-04-30T12:00:38.595Z,54.45
2023-04-30T12:05:41.773Z,53.90
2023-04-30T12:10:44.378Z,53.51
2023-04-30T12:15:59.657Z,54.46
2023-04-30T12:21:02.141Z,52.43
2023-04-30T12:26:04.488Z,51.99
2023-04-30T12:31:06.852Z,53.40
2023-04-30T12:36:12.167Z,53.99
2023-04-30T12:41:15.600Z,54.09
2023-04-30T12:46:27.950Z,53.13
2023-04-30T12:51:30.349Z,55.32
2023-04-30T12:56:32.696Z,55.35
2023-04-30T13:01:45.803Z,55.71
2023-04-30T13:06:48.132Z,55.03
2023-04-30T13:11:50.834Z,53.75
2023-04-30T13:16:53.837Z,53.05
2023-04-30T13:21:56.489Z,52.87
2023-04-30T13:26:59.451Z,54.03
2023-04-30T13:32:01.842Z,53.09
2023-04-30T13:37:04.142Z,53.64
2023-04-30T13:42:06.457Z,52.80
2023-04-30T13:47:10.816Z,50.69
2023-04-30T13:52:13.454Z,52.12
2023-04-30T13:57:15.691Z,51.83
2023-04-30T14:02:18.927Z,52.19
2023-04-30T14:07:21.264Z,50.78
2023-04-30T14:12:24.671Z,51.66
2023-04-30T14:17:27.925Z,52.14
2023-04-30T14:22:30.310Z,52.14
2023-04-30T14:27:32.597Z,51.26
2023-04-30T14:32:34.906Z,51.75
2023-04-30T14:37:37.259Z,52.14
2023-04-30T14:42:39.498Z,50.75
2023-04-30T14:47:42.342Z,51.62
2023-04-30T14:52:44.779Z,52.43
2023-04-30T14:57:47.137Z,50.73
2023-04-30T15:02:49.743Z,51.25
2023-04-30T15:07:52.864Z,51.41
2023-04-30T15:12:54.968Z,50.70
2023-04-30T15:17:58.884Z,51.88
2023-04-30T15:23:01.223Z,51.40
2023-04-30T15:28:03.612Z,51.92
2023-04-30T15:33:05.966Z,51.75
2023-04-30T15:38:08.232Z,51.23
2023-04-30T15:43:10.325Z,51.43
2023-04-30T15:48:12.712Z,51.08
2023-04-30T15:53:14.948Z,50.14
2023-04-30T15:58:17.429Z,51.20
2023-04-30T16:03:20.001Z,51.59
2023-04-30T16:08:22.257Z,50.64
2023-04-30T16:13:24.533Z,51.00
2023-04-30T16:18:26.841Z,52.24
2023-04-30T16:23:29.182Z,51.31
2023-04-30T16:28:31.972Z,52.78
2023-04-30T16:33:34.100Z,53.44
2023-04-30T16:38:37.104Z,52.25
2023-04-30T16:43:39.227Z,52.67
2023-04-30T16:48:41.303Z,52.61
2023-04-30T16:53:44.679Z,53.36
2023-04-30T16:58:46.940Z,52.59
2023-04-30T17:03:50.764Z,52.76
2023-04-30T17:08:53.494Z,53.01
2023-04-30T17:13:56.044Z,52.80
2023-04-30T17:18:58.615Z,52.77
2023-04-30T17:24:01.690Z,53.60
2023-04-30T17:29:04.548Z,54.06
2023-04-30T17:34:06.855Z,53.91
2023-04-30T17:39:09.033Z,54.65
2023-04-30T17:44:11.764Z,55.17
2023-04-30T17:49:13.962Z,54.54
2023-04-30T17:54:17.362Z,56.42
2023-04-30T17:59:19.720Z,55.33
2023-04-30T18:04:22.842Z,55.47
2023-04-30T18:09:25.404Z,55.94
2023-04-30T18:14:27.904Z,56.28
2023-04-30T18:19:30.190Z,56.75
2023-04-30T18:24:32.542Z,57.02
2023-04-30T18:29:35.569Z,55.62
2023-04-30T18:34:38.097Z,57.20
2023-04-30T18:39:41.035Z,57.76
2023-04-30T18:44:43.286Z,56.87
2023-04-30T18:49:45.829Z,56.30
2023-04-30T18:54:48.378Z,56.88
2023-04-30T18:59:50.478Z,58.26
2023-04-30T19:04:53.730Z,57.96
2023-04-30T19:09:56.650Z,58.81
2023-04-30T19:14:59.213Z,58.73
2023-04-30T19:20:01.405Z,58.56
2023-04-30T19:25:04.119Z,57.73
2023-04-30T19:30:07.253Z,58.12
2023-04-30T19:35:09.763Z,58.64
2023-04-30T19:40:12.659Z,59.07
2023-04-30T19:45:14.912Z,59.27
2023-04-30T19:50:17.264Z,57.81
2023-04-30T19:55:19.687Z,58.36
2023-04-30T20:00:22.394Z,57.87
2023-04-30T20:05:24.584Z,59.42
2023-04-30T20:10:27.234Z,59.84
2023-04-30T20:15:29.693Z,60.44
2023-04-30T20:20:32.135Z,62.57
2023-04-30T20:25:34.220Z,62.54
2023-04-30T20:30:36.510Z,62.66
2023-04-30T20:35:45.484Z,63.44
2023-04-30T20:40:47.820Z,64.05
2023-04-30T20:45:50.048Z,61.29
2023-04-30T20:50:52.139Z,61.17
2023-04-30T20:55:59.876Z,61.16
2023-04-30T21:01:02.235Z,63.21
2023-04-30T21:06:05.201Z,64.25
2023-04-30T21:11:07.352Z,66.59
2023-04-30T21:16:09.604Z,69.63
2023-04-30T21:21:11.865Z,68.48
2023-04-30T21:26:14.396Z,68.10
2023-04-30T21:31:16.794Z,63.96
2023-04-30T21:36:19.117Z,63.04
2023-04-30T21:41:24.421Z,63.64
2023-04-30T21:46:26.569Z,64.05
2023-04-30T21:51:28.918Z,66.55
2023-04-30T21:56:31.015Z,66.30
2023-04-30T22:01:33.335Z,66.34
2023-04-30T22:06:35.916Z,66.60
2023-04-30T22:11:38.139Z,66.56
2023-04-30T22:16:40.285Z,69.34
2023-04-30T22:21:42.572Z,68.52
2023-04-30T22:26:44.727Z,71.25
2023-04-30T22:31:46.998Z,67.99
2023-04-30T22:36:50.128Z,68.06
2023-04-30T22:41:54.032Z,69.25
2023-04-30T22:46:58.114Z,69.55
2023-04-30T22:52:01.305Z,70.68
2023-04-30T22:57:03.971Z,68.11
2023-04-30T23:02:06.574Z,68.66
2023-04-30T23:07:09.160Z,68.87
2023-04-30T23:12:11.279Z,69.48
2023-04-30T23:17:13.542Z,70.09
2023-04-30T23:22:17.037Z,69.91
2023-04-30T23:27:19.384Z,71.08
2023-04-30T23:32:22.158Z,74.49
2023-04-30T23:37:24.509Z,71.89
2023-04-30T23:42:26.777Z,74.88
2023-04-30T23:47:28.953Z,73.98
2023-04-30T23:52:32.016Z,71.84
2023-04-30T23:57:34.253Z,70.75
